Flight Track Log - Related Links

Times and Time Zones

All times are in EDT time to prevent confusion due to time zone crossing. See the JIA2335 flight status page for this flight to view local times or setup timezone preferences in your user account.

Time Position Orientation Groundspeed Altitude Reporting Facility
EDT Latitude Longitude Course Direction KTS MPH feet Rate Location/Type
Fri 09:28:52 AM 39.8667 -75.2833 270° West 165 190 500  Level Philadelphia TRACON
Fri 09:30:04 AM 39.8500 -75.3667 255° West 203 234 3,300 2,136 Climbing Philadelphia TRACON
Fri 09:31:00 AM 39.9000 -75.5722 270° West  Level FlightAware Approximate
Fri 09:31:04 AM 39.8333 -75.4333 252° West 253 291 5,200  Level Philadelphia TRACON
Fri 09:32:00 AM 39.9132 -75.6876 258° West  Level FlightAware Approximate
Fri 09:32:55 AM 39.8183 -75.6061 264° West 284 327 9,700  Level New York Center
Fri 09:33:00 AM 39.9000 -75.8045 270° West  Level FlightAware Approximate
Fri 09:33:54 AM 39.8339 -75.6883 284° West 274 315 10,000  Level New York Center
Fri 09:34:00 AM 39.9000 -75.9232 270° West  Level FlightAware Approximate
Fri 09:34:54 AM 39.8433 -75.8081 276° West 288 331 11,100  Level New York Center
Fri 09:35:55 AM 39.8514 -75.9086 276° West 313 360 12,500 1,550 Climbing New York Center
Fri 09:36:54 AM 39.8625 -76.0392 276° West 323 372 14,200 1,412 Climbing New York Center
Fri 09:37:54 AM 39.8678 -76.1506 274° West 343 395 15,300 1,091 Climbing New York Center
Fri 09:38:55 AM 39.8806 -76.2786 277° West 349 402 16,400 1,041 Climbing New York Center
Fri 09:39:55 AM 39.8906 -76.4203 275° West 359 413 17,400 950 Climbing New York Center
Fri 09:40:55 AM 39.8972 -76.5400 274° West 372 428 18,300 1,008 Climbing New York Center
Fri 09:41:54 AM 39.9086 -76.6897 276° West 372 428 19,400 1,008 Climbing New York Center
Fri 09:42:54 AM 39.9150 -76.8092 274° West 372 428 20,300 942 Climbing New York Center
Fri 09:43:55 AM 39.9231 -76.9400 275° West 372 428 21,300 992 Climbing New York Center
Fri 09:44:55 AM 39.9303 -77.0761 274° West 372 428 22,300 1,008 Climbing New York Center
Fri 09:45:54 AM 39.9400 -77.2069 276° West 372 428 23,300 1,000 Climbing New York Center
Fri 09:46:55 AM 39.9494 -77.3406 275° West 372 428 24,300 966 Climbing New York Center
Fri 09:47:52 AM 39.9578 -77.4875 274° West 372 428 25,200 1,102 Climbing New York Center
Fri 09:49:22 AM 39.9717 -77.6761 276° West 355 409 27,000 1,120 Climbing Cleveland Center
Fri 09:50:22 AM 39.9769 -77.8033 273° West 355 409 28,000 1,008 Climbing Cleveland Center
Fri 09:51:21 AM 39.9864 -77.9331 275° West 355 409 29,000 1,000 Climbing Cleveland Center
Fri 09:52:22 AM 39.9933 -78.0547 274° West 355 409 30,000 1,050 Climbing Cleveland Center
Fri 09:53:21 AM 39.9981 -78.1767 273° West 344 396 31,100 655 Climbing Cleveland Center
Fri 09:54:21 AM 40.0025 -78.2983 273° West 344 396 31,300 200 Climbing Cleveland Center
Fri 09:55:21 AM 40.0072 -78.4283 273° West 350 403 31,500 200 Climbing Cleveland Center
Fri 09:56:21 AM 40.0158 -78.5581 275° West 360 414 31,700  Climbing Cleveland Center
Fri 09:57:21 AM 40.0222 -78.6908 274° West 365 420 31,500 -298 Descending Cleveland Center
Fri 09:58:22 AM 40.0286 -78.8317 273° West 375 432 31,100 -500 Descending Cleveland Center
Fri 09:59:21 AM 40.0392 -78.9750 276° West 391 450 30,500 -555 Descending Cleveland Center
Fri 10:00:21 AM 40.0472 -79.1186 274° West 401 461 30,000 -250 Descending Cleveland Center
Fri 10:01:21 AM 40.0533 -79.2675 273° West 406 467 30,000 -250 Level Cleveland Center
Fri 10:02:21 AM 40.0611 -79.4086 274° West 406 467 29,500 -800 Descending Cleveland Center
Fri 10:03:21 AM 40.0647 -79.5522 272° West 400 460 28,400 -750 Descending Cleveland Center
Fri 10:04:21 AM 40.0719 -79.6933 274° West 400 460 28,000 -198 Descending Cleveland Center
Fri 10:05:22 AM 40.0772 -79.8261 273° West 393 452 28,000  Level Cleveland Center
Fri 10:06:22 AM 40.0822 -79.9536 273° West 380 437 28,000  Level Cleveland Center
Fri 10:07:21 AM 40.0828 -80.0839 270° West 352 405 28,000  Level Cleveland Center
Fri 10:08:21 AM 40.0875 -80.2114 273° West 352 405 28,000  Level Cleveland Center
Fri 10:09:21 AM 40.0939 -80.3417 274° West 357 411 28,000  Level Cleveland Center
Fri 10:10:21 AM 40.1025 -80.4556 276° West 362 417 28,000  Level Cleveland Center
Fri 10:11:22 AM 40.1089 -80.5886 274° West 368 423 28,000  Level Cleveland Center
Fri 10:12:21 AM 40.1150 -80.7214 273° West 368 423 28,000  Level Cleveland Center
Fri 10:13:58 AM 40.1211 -80.9514 272° West 372 428 28,000 -264 Level Indianapolis Center
Fri 10:15:00 AM 40.1272 -81.0847 273° West 368 423 27,300 -871 Descending Indianapolis Center
Fri 10:16:02 AM 40.1322 -81.2181 273° West 366 421 26,200 -1,065 Descending Indianapolis Center
Fri 10:17:04 AM 40.1378 -81.3522 273° West 365 420 25,100 -1,056 Descending Indianapolis Center
Fri 10:18:07 AM 40.1425 -81.4836 273° West 362 417 24,000 -528 Descending Indianapolis Center
Fri 10:19:09 AM 40.1475 -81.6117 273° West 355 409 24,000 -194 Level Indianapolis Center
Fri 10:20:11 AM 40.1519 -81.7381 273° West 348 400 23,600 -484 Descending Indianapolis Center
Fri 10:21:13 AM 40.1567 -81.8922 272° West 358 412 23,000 -290 Descending Indianapolis Center
Fri 10:22:15 AM 40.1614 -82.0256 273° West 363 418 23,000  Level Indianapolis Center
Fri 10:23:17 AM 40.1658 -82.1581 273° West 363 418 23,000  Level Indianapolis Center
Fri 10:24:19 AM 40.1697 -82.2892 272° West 360 414 23,000  Level Indianapolis Center
Fri 10:25:21 AM 40.1742 -82.4211 273° West 361 415 23,000  Level Indianapolis Center
Fri 10:26:23 AM 40.1778 -82.5522 272° West 358 412 23,000 -242 Level Indianapolis Center
Fri 10:27:25 AM 40.1806 -82.6831 272° West 358 412 22,500 -1,210 Descending Indianapolis Center
Fri 10:28:27 AM 40.1853 -82.8325 272° West 351 404 20,500 -1,790 Descending Indianapolis Center
Fri 10:29:29 AM 40.1786 -82.9542 266° West 336 387 18,800 -1,645 Descending Indianapolis Center
Fri 10:30:31 AM 40.1547 -83.0689 255° West 326 375 17,100 -1,645 Descending Indianapolis Center
Fri 10:31:33 AM 40.1311 -83.1831 255° West 323 372 15,400 -1,694 Descending Indianapolis Center
Fri 10:32:35 AM 40.1067 -83.2947 254° West 320 368 13,600 -1,761 Descending Indianapolis Center
Fri 10:33:22 AM 40.0842 -83.3936 253° West 316 364 12,200 -1,645 Descending Indianapolis Center
Fri 10:33:37 AM 40.0833 -83.4047 264° West 314 361 11,900 -935 Descending Indianapolis Center
Fri 10:34:39 AM 40.0606 -83.5239 256° West 287 330 11,000 -729 Descending Indianapolis Center
Fri 10:35:24 AM 40.0467 -83.5908 255° West 253 291 10,600 -774 Descending Indianapolis Center
Fri 10:35:41 AM 40.0433 -83.6131 259° West 257 296 10,200 -1,600 Descending Indianapolis Center
Fri 10:36:24 AM 40.0300 -83.6758 255° West 244 281 9,000 -1,645 Descending Indianapolis Center
Fri 10:36:43 AM 40.0264 -83.6994 259° West 247 284 8,500 -1,672 Descending Indianapolis Center
Fri 10:37:25 AM 40.0128 -83.7664 255° West 239 275 7,300 -1,548 Descending Indianapolis Center
Fri 10:37:45 AM 40.0106 -83.7842 261° West 244 281 6,900 -1,463 Descending Indianapolis Center
Fri 10:38:47 AM 40.0011 -83.8694 262° West 241 277 5,300 -1,663 Descending Indianapolis Center
Fri 10:39:26 AM 40.0019 -83.9394 271° West 239 275 4,100 -1,548 Descending Indianapolis Center
Fri 10:39:49 AM 40.0028 -83.9569 274° West 241 277 3,700 -835 Descending Indianapolis Center
Fri 10:40:45 AM 39.9856 -84.0408 255° West 218 251 3,000 -378 Descending Indianapolis Center
Fri 10:41:40 AM 39.9586 -84.0944 237° Southwest 177 204 3,000  Level Indianapolis Center

Login

Don't have an account? Register now (free) for customized features, flight alerts, and more!